Time;durP1;ratioP1;P1;durP2;ratioP2;P2;SDS_P1;SDS_P2;PMS_P1;PMS_P2;Temp;Humidity;BMP_temperature;BMP_pressure;BME280_temperature;BME280_humidity;BME280_pressure;Samples;Min_cycle;Max_cycle;Signal;HPM_P1;HPM_P2
2021/09/28 00:02:34;;;;;;;21.70;19.67;;;20.10;99.90;;;;;;5133807;27;20446;-61
2021/09/28 00:05:01;;;;;;;18.40;16.60;;;20.10;99.90;;;;;;5136473;27;21117;-61
2021/09/28 00:07:28;;;;;;;23.27;21.10;;;20.10;99.90;;;;;;5136085;27;20478;-60
2021/09/28 00:09:55;;;;;;;21.10;19.13;;;20.00;99.90;;;;;;5136295;27;20571;-61
2021/09/28 00:12:22;;;;;;;20.97;19.00;;;20.00;99.90;;;;;;5128233;27;20463;-61
2021/09/28 00:14:49;;;;;;;20.73;18.90;;;20.00;99.90;;;;;;5136355;27;20534;-61
2021/09/28 00:17:16;;;;;;;19.80;18.07;;;20.00;99.90;;;;;;5122347;27;20459;-61
2021/09/28 00:19:44;;;;;;;20.63;18.83;;;20.00;99.90;;;;;;5136228;27;20467;-61
2021/09/28 00:22:11;;;;;;;20.60;18.70;;;20.00;99.90;;;;;;5122707;27;20813;-60
2021/09/28 00:24:38;;;;;;;19.57;17.90;;;20.00;99.90;;;;;;5136386;27;20459;-61
2021/09/28 00:27:05;;;;;;;18.00;16.40;;;20.00;99.90;;;;;;5136512;27;20468;-61
2021/09/28 00:29:32;;;;;;;19.13;17.53;;;20.00;99.90;;;;;;5135558;27;20473;-61
2021/09/28 00:31:59;;;;;;;20.23;18.40;;;20.00;99.90;;;;;;5136211;27;20825;-61
2021/09/28 00:34:26;;;;;;;20.73;18.80;;;20.00;99.90;;;;;;5135720;27;20820;-61
2021/09/28 00:36:54;;;;;;;19.47;17.60;;;20.00;99.90;;;;;;5136087;27;21402;-61
2021/09/28 00:39:21;;;;;;;22.00;19.90;;;20.00;99.90;;;;;;5134754;27;20823;-61
2021/09/28 00:41:48;;;;;;;19.67;17.90;;;20.00;99.90;;;;;;5136168;27;20473;-61
2021/09/28 00:44:15;;;;;;;20.80;18.90;;;20.00;99.90;;;;;;5135526;27;20475;-61
2021/09/28 00:46:42;;;;;;;20.23;18.50;;;20.00;99.90;;;;;;5136171;27;20456;-61
2021/09/28 00:49:09;;;;;;;19.53;17.90;;;20.00;99.90;;;;;;5135502;27;20474;-61
2021/09/28 00:51:36;;;;;;;19.33;17.63;;;20.00;99.90;;;;;;5135527;27;20467;-61
2021/09/28 00:54:04;;;;;;;21.73;19.40;;;20.00;99.90;;;;;;5135646;27;20466;-61
2021/09/28 00:56:31;;;;;;;21.20;19.23;;;20.00;99.90;;;;;;5128385;27;20467;-61
2021/09/28 00:59:01;;;;;;;21.13;19.17;;;19.90;99.90;;;;;;5135552;27;20486;-61
2021/09/28 01:01:28;;;;;;;18.23;16.63;;;20.00;99.90;;;;;;5135481;27;20488;-61
2021/09/28 01:03:55;;;;;;;20.23;18.17;;;20.00;99.90;;;;;;5135356;27;20550;-61
2021/09/28 01:06:21;;;;;;;17.20;15.80;;;19.90;99.90;;;;;;5134922;27;20467;-61
2021/09/28 01:08:48;;;;;;;17.03;15.53;;;20.00;99.90;;;;;;5135634;27;20460;-61
2021/09/28 01:11:17;;;;;;;17.43;16.03;;;20.00;99.90;;;;;;5130595;27;20490;-61
2021/09/28 01:13:43;;;;;;;18.90;17.10;;;20.00;99.90;;;;;;5132543;27;20470;-61
2021/09/28 01:16:12;;;;;;;15.57;14.30;;;20.00;99.90;;;;;;5135282;27;20474;-61
2021/09/28 01:18:40;;;;;;;18.43;16.93;;;20.00;99.90;;;;;;5134949;27;20456;-61
2021/09/28 01:21:11;;;;;;;18.17;16.60;;;20.00;99.90;;;;;;5135290;27;20987;-61
2021/09/28 01:23:44;;;;;;;17.53;15.93;;;20.00;99.90;;;;;;5134882;27;20478;-61
2021/09/28 01:26:12;;;;;;;18.63;16.97;;;20.00;99.90;;;;;;5135071;27;20552;-61
2021/09/28 01:28:39;;;;;;;18.87;17.00;;;20.00;99.90;;;;;;5134536;27;20958;-61
2021/09/28 01:31:06;;;;;;;20.63;18.73;;;20.00;99.90;;;;;;5134715;27;20456;-61
2021/09/28 01:33:33;;;;;;;22.10;19.80;;;20.00;99.90;;;;;;5134299;27;20464;-61
2021/09/28 01:36:00;;;;;;;24.87;22.37;;;20.00;99.90;;;;;;5135105;27;20467;-61
2021/09/28 01:38:28;;;;;;;26.63;24.07;;;20.00;99.90;;;;;;5134287;27;20477;-61
2021/09/28 01:40:55;;;;;;;30.67;27.60;;;20.00;99.90;;;;;;5134450;27;20981;-61
2021/09/28 01:43:22;;;;;;;24.60;22.17;;;20.00;99.90;;;;;;5134108;27;20467;-61
2021/09/28 01:45:55;;;;;;;20.00;18.23;;;20.00;99.90;;;;;;5134243;27;20472;-60
2021/09/28 01:48:24;;;;;;;17.87;16.20;;;20.00;99.90;;;;;;5131757;27;20460;-61
2021/09/28 01:50:51;;;;;;;15.70;14.30;;;20.00;99.90;;;;;;5133345;27;20468;-61
2021/09/28 01:53:18;;;;;;;16.83;15.30;;;20.00;99.90;;;;;;5133859;27;20827;-61
2021/09/28 01:55:46;;;;;;;17.10;15.50;;;20.00;99.90;;;;;;5126850;27;20979;-61
2021/09/28 01:58:14;;;;;;;17.30;15.60;;;20.00;99.90;;;;;;5132423;27;20481;-61
2021/09/28 02:00:41;;;;;;;19.50;17.70;;;20.00;99.90;;;;;;5134066;27;20460;-61
2021/09/28 02:03:08;;;;;;;16.63;15.13;;;20.00;99.90;;;;;;5134484;27;20464;-61
2021/09/28 02:05:35;;;;;;;18.27;16.47;;;20.00;99.90;;;;;;5133343;27;20472;-61
2021/09/28 02:08:02;;;;;;;19.23;17.23;;;20.00;99.90;;;;;;5134374;27;20478;-60
2021/09/28 02:10:30;;;;;;;18.17;16.57;;;20.00;99.90;;;;;;5133388;27;20812;-63
2021/09/28 02:12:58;;;;;;;17.23;15.63;;;20.00;99.90;;;;;;5126370;27;20474;-61
2021/09/28 02:15:25;;;;;;;16.90;15.43;;;20.00;99.90;;;;;;5133839;27;20464;-61
2021/09/28 02:17:52;;;;;;;25.90;23.30;;;20.10;99.90;;;;;;5134342;27;20467;-61
2021/09/28 02:20:19;;;;;;;24.50;21.90;;;20.00;99.90;;;;;;5126774;27;20950;-61
2021/09/28 02:22:46;;;;;;;50.90;45.87;;;20.00;99.90;;;;;;5134227;27;20462;-61
2021/09/28 02:25:13;;;;;;;38.30;34.40;;;20.00;99.90;;;;;;5133634;27;20542;-61
2021/09/28 02:27:41;;;;;;;44.80;40.07;;;20.00;99.90;;;;;;5133125;27;20462;-61
2021/09/28 02:30:10;;;;;;;67.80;60.73;;;20.00;99.90;;;;;;5133827;27;20472;-60
2021/09/28 02:32:37;;;;;;;59.03;52.57;;;20.00;99.90;;;;;;5133275;27;20956;-61
2021/09/28 02:35:04;;;;;;;61.57;53.60;;;20.00;99.90;;;;;;5133865;27;20490;-60
2021/09/28 02:37:31;;;;;;;44.00;39.30;;;20.00;99.90;;;;;;5133580;27;20467;-61
2021/09/28 02:39:58;;;;;;;38.33;34.20;;;20.00;99.90;;;;;;5133633;27;20471;-61
2021/09/28 02:42:25;;;;;;;46.80;41.77;;;20.00;99.90;;;;;;5133173;27;20474;-61
2021/09/28 02:44:55;;;;;;;48.40;42.00;;;20.00;99.90;;;;;;5133890;27;20474;-61
2021/09/28 02:47:23;;;;;;;46.70;41.90;;;20.00;99.90;;;;;;5132946;27;20528;-60
2021/09/28 02:49:50;;;;;;;37.67;33.70;;;20.00;99.90;;;;;;5133705;27;20468;-61
2021/09/28 02:52:17;;;;;;;29.47;26.50;;;20.00;99.90;;;;;;5133246;27;20467;-61
2021/09/28 02:54:44;;;;;;;33.70;30.40;;;20.00;99.90;;;;;;5131056;27;20466;-61
2021/09/28 02:57:11;;;;;;;55.50;49.57;;;20.00;99.90;;;;;;5132518;27;20477;-61
2021/09/28 02:59:39;;;;;;;54.80;48.93;;;20.00;99.90;;;;;;5133103;27;20471;-61
2021/09/28 03:02:06;;;;;;;39.90;34.33;;;20.00;99.90;;;;;;5133184;27;20463;-61
2021/09/28 03:04:35;;;;;;;57.90;51.60;;;19.90;99.90;;;;;;5132634;27;20481;-61
2021/09/28 03:07:02;;;;;;;42.50;36.97;;;19.90;99.90;;;;;;5133281;27;20474;-61
2021/09/28 03:09:28;;;;;;;35.40;31.60;;;19.90;99.90;;;;;;5133053;27;20827;-61
2021/09/28 03:11:55;;;;;;;41.63;37.40;;;19.90;99.90;;;;;;5129457;27;20463;-61
2021/09/28 03:14:22;;;;;;;48.33;41.37;;;19.90;99.90;;;;;;5133300;27;20961;-61
2021/09/28 03:16:49;;;;;;;35.20;31.00;;;19.90;99.90;;;;;;5119535;27;20494;-61
2021/09/28 03:19:17;;;;;;;36.77;32.80;;;19.90;99.90;;;;;;5133186;27;20459;-61
2021/09/28 03:21:45;;;;;;;27.53;24.63;;;19.90;99.90;;;;;;5132342;27;20464;-61
2021/09/28 03:24:12;;;;;;;22.63;20.23;;;19.90;99.90;;;;;;5133239;27;20467;-61
2021/09/28 03:26:39;;;;;;;42.93;38.63;;;19.90;99.90;;;;;;5133117;27;20460;-61
2021/09/28 03:29:06;;;;;;;38.43;33.00;;;19.80;99.90;;;;;;5132953;27;20468;-61
2021/09/28 03:31:33;;;;;;;46.50;41.50;;;19.90;99.90;;;;;;5132202;27;20470;-61
2021/09/28 03:34:00;;;;;;;33.63;30.20;;;19.90;99.90;;;;;;5132990;27;20464;-61
2021/09/28 03:36:27;;;;;;;60.00;50.07;;;19.80;99.90;;;;;;5132848;27;20468;-61
2021/09/28 03:38:55;;;;;;;28.43;25.53;;;19.80;99.90;;;;;;5133004;27;20467;-61
2021/09/28 03:41:22;;;;;;;26.70;24.20;;;19.80;99.90;;;;;;5132898;27;20467;-61
2021/09/28 03:43:49;;;;;;;27.30;24.60;;;19.80;99.90;;;;;;5132614;27;20967;-61
2021/09/28 03:46:16;;;;;;;48.83;40.50;;;19.70;99.90;;;;;;5132970;27;20478;-61
2021/09/28 03:48:42;;;;;;;53.70;46.90;;;19.70;99.90;;;;;;5132607;27;20478;-61
2021/09/28 03:51:10;;;;;;;46.73;41.20;;;19.70;99.90;;;;;;5133240;27;20464;-61
2021/09/28 03:53:37;;;;;;;45.83;38.53;;;19.70;99.90;;;;;;5132621;27;20478;-61
2021/09/28 03:56:05;;;;;;;48.33;41.87;;;19.70;99.90;;;;;;5130576;27;20469;-61
2021/09/28 03:58:32;;;;;;;33.33;28.00;;;19.70;99.90;;;;;;5132385;27;20471;-61
2021/09/28 04:00:59;;;;;;;72.27;63.17;;;19.70;99.90;;;;;;5132562;27;20825;-61
2021/09/28 04:03:26;;;;;;;43.30;38.80;;;19.70;99.90;;;;;;5132669;27;20468;-61
2021/09/28 04:05:52;;;;;;;28.90;25.83;;;19.70;99.90;;;;;;5132206;27;20464;-61
2021/09/28 04:08:19;;;;;;;18.57;16.60;;;19.70;99.90;;;;;;5132363;27;20836;-61
2021/09/28 04:10:46;;;;;;;44.33;38.37;;;19.60;99.90;;;;;;5131997;27;20468;-61
2021/09/28 04:13:14;;;;;;;46.93;41.10;;;19.60;99.90;;;;;;5132030;27;20486;-61
2021/09/28 04:15:41;;;;;;;20.50;18.23;;;19.60;99.90;;;;;;5136081;27;20502;-61
2021/09/28 04:18:09;;;;;;;21.47;19.37;;;19.60;99.90;;;;;;5136335;27;20890;-61
2021/09/28 04:20:39;;;;;;;51.70;46.13;;;19.50;99.90;;;;;;5136026;27;20459;-61
2021/09/28 04:23:07;;;;;;;35.47;31.33;;;19.50;99.90;;;;;;5136051;27;20462;-61
2021/09/28 04:25:34;;;;;;;59.23;45.20;;;19.50;99.90;;;;;;5136124;27;20464;-61
2021/09/28 04:28:01;;;;;;;52.13;43.37;;;19.50;99.90;;;;;;5135210;27;20957;-61
2021/09/28 04:30:29;;;;;;;51.63;45.47;;;19.50;99.90;;;;;;5136384;27;20471;-62
2021/09/28 04:32:56;;;;;;;42.07;36.43;;;19.50;99.90;;;;;;5134999;27;20779;-61
2021/09/28 04:35:23;;;;;;;45.53;40.53;;;19.40;99.90;;;;;;5136152;27;20474;-61
2021/09/28 04:37:50;;;;;;;33.13;29.50;;;19.40;99.90;;;;;;5135699;27;20474;-61
2021/09/28 04:40:17;;;;;;;20.40;16.87;;;19.40;99.90;;;;;;5136057;27;20950;-62
2021/09/28 04:42:44;;;;;;;21.90;19.70;;;19.40;99.90;;;;;;5135543;27;20470;-61
2021/09/28 04:45:11;;;;;;;35.17;28.73;;;19.30;99.90;;;;;;5136142;27;20469;-61
2021/09/28 04:47:40;;;;;;;27.90;24.50;;;19.30;99.90;;;;;;5135384;27;20958;-61
2021/09/28 04:50:08;;;;;;;34.57;30.67;;;19.30;99.90;;;;;;5135723;27;20540;-61
2021/09/28 04:52:36;;;;;;;19.67;17.33;;;19.30;99.90;;;;;;5135356;27;20478;-61
2021/09/28 04:55:04;;;;;;;32.20;28.10;;;19.20;99.90;;;;;;5131449;27;20464;-61
2021/09/28 04:57:31;;;;;;;31.33;27.00;;;19.20;99.90;;;;;;5135776;27;20547;-61
2021/09/28 04:59:57;;;;;;;16.40;14.70;;;19.20;99.90;;;;;;5135051;27;20474;-61
2021/09/28 05:02:24;;;;;;;28.00;24.20;;;19.10;99.90;;;;;;5135650;27;20535;-61
2021/09/28 05:04:52;;;;;;;18.90;17.00;;;19.10;99.90;;;;;;5135090;27;20460;-61
2021/09/28 05:07:20;;;;;;;19.50;16.50;;;19.10;99.90;;;;;;5135620;27;20808;-62
2021/09/28 05:09:47;;;;;;;21.60;17.57;;;19.10;99.90;;;;;;5134913;27;20479;-61
2021/09/28 05:12:14;;;;;;;16.03;13.77;;;19.10;99.90;;;;;;5130184;27;20471;-61
2021/09/28 05:14:41;;;;;;;36.23;30.97;;;19.00;99.90;;;;;;5134860;27;20464;-61
2021/09/28 05:17:08;;;;;;;35.63;31.00;;;19.00;99.90;;;;;;5135514;27;20949;-61
2021/09/28 05:19:35;;;;;;;22.90;20.50;;;19.00;99.90;;;;;;5131112;27;20468;-61
2021/09/28 05:22:04;;;;;;;29.40;25.57;;;19.00;99.90;;;;;;5135281;27;20463;-62
2021/09/28 05:24:30;;;;;;;31.23;26.63;;;19.00;99.90;;;;;;5135059;27;20464;-62
2021/09/28 05:26:57;;;;;;;31.00;26.90;;;19.00;99.90;;;;;;5134920;27;20460;-61
2021/09/28 05:29:24;;;;;;;14.87;12.13;;;18.90;99.90;;;;;;5135054;27;20467;-61
2021/09/28 05:31:51;;;;;;;43.20;37.50;;;18.90;99.90;;;;;;5134512;27;20474;-61
2021/09/28 05:34:18;;;;;;;28.97;20.97;;;18.90;99.90;;;;;;5134867;27;20481;-62
2021/09/28 05:36:45;;;;;;;14.83;13.30;;;18.80;99.90;;;;;;5134745;27;20464;-61
2021/09/28 05:39:13;;;;;;;11.70;10.30;;;18.80;99.90;;;;;;5134715;27;20478;-61
2021/09/28 05:41:40;;;;;;;23.17;18.10;;;18.80;99.90;;;;;;5134653;27;20564;-61
2021/09/28 05:44:07;;;;;;;17.07;15.27;;;18.80;99.90;;;;;;5134564;27;20487;-61
2021/09/28 05:46:34;;;;;;;36.90;30.03;;;18.80;99.90;;;;;;5134825;27;20979;-61
2021/09/28 05:49:00;;;;;;;20.60;16.67;;;18.80;99.90;;;;;;5134220;27;20464;-61
2021/09/28 05:51:29;;;;;;;22.90;20.40;;;18.70;99.90;;;;;;5134711;27;20464;-61
2021/09/28 05:53:57;;;;;;;34.40;26.07;;;18.80;99.90;;;;;;5134133;27;20467;-61
2021/09/28 05:56:26;;;;;;;16.33;13.80;;;18.80;99.90;;;;;;5129882;27;20786;-61
2021/09/28 05:58:53;;;;;;;10.00;9.00;;;18.80;99.90;;;;;;5133564;27;20475;-61
2021/09/28 06:01:20;;;;;;;6.13;5.10;;;18.80;99.90;;;;;;5134891;27;20471;-61
2021/09/28 06:03:47;;;;;;;12.00;10.10;;;18.80;99.90;;;;;;5133726;27;20472;-61
2021/09/28 06:06:14;;;;;;;32.63;27.80;;;18.80;99.90;;;;;;5134159;27;20984;-61
2021/09/28 06:08:40;;;;;;;22.17;19.17;;;18.80;99.90;;;;;;5134031;27;20467;-61
2021/09/28 06:11:07;;;;;;;8.50;7.70;;;18.80;99.90;;;;;;5130720;27;20837;-61
2021/09/28 06:13:35;;;;;;;7.43;6.27;;;18.80;99.90;;;;;;5132437;27;20464;-61
2021/09/28 06:16:02;;;;;;;8.80;6.27;;;18.80;99.90;;;;;;5133762;27;20494;-61
2021/09/28 06:18:29;;;;;;;10.03;8.87;;;18.80;99.90;;;;;;5134058;27;20468;-61
2021/09/28 06:20:56;;;;;;;23.47;18.70;;;18.80;99.90;;;;;;5133605;27;20464;-61
2021/09/28 06:23:23;;;;;;;10.93;9.17;;;18.80;99.90;;;;;;5134238;27;20463;-62
2021/09/28 06:25:50;;;;;;;20.07;14.40;;;18.80;99.90;;;;;;5133844;27;20464;-61
2021/09/28 06:28:18;;;;;;;10.63;9.57;;;18.80;99.90;;;;;;5133794;27;20494;-62
2021/09/28 06:30:46;;;;;;;6.27;5.20;;;18.80;99.90;;;;;;5133041;27;20524;-61
2021/09/28 06:33:13;;;;;;;8.93;7.07;;;18.80;99.90;;;;;;5133883;27;20459;-61
2021/09/28 06:35:40;;;;;;;5.03;3.93;;;18.80;99.90;;;;;;5133123;27;20460;-61
2021/09/28 06:38:10;;;;;;;11.03;9.10;;;18.80;99.90;;;;;;5133750;27;20476;-61
2021/09/28 06:40:37;;;;;;;12.23;10.87;;;18.80;99.90;;;;;;5133652;27;20554;-61
2021/09/28 06:43:04;;;;;;;19.40;16.03;;;18.80;99.90;;;;;;5133507;27;20579;-61
2021/09/28 06:45:31;;;;;;;27.83;21.20;;;18.80;99.90;;;;;;5133804;27;20463;-61
2021/09/28 06:47:59;;;;;;;10.53;7.50;;;18.80;99.90;;;;;;5132813;27;20474;-62
2021/09/28 06:50:26;;;;;;;7.00;4.80;;;18.70;99.90;;;;;;5133632;27;20476;-61
2021/09/28 06:52:54;;;;;;;5.50;4.90;;;18.70;99.90;;;;;;5133233;27;20478;-61
2021/09/28 06:55:21;;;;;;;7.67;5.50;;;18.80;99.90;;;;;;5129233;27;20461;-62
2021/09/28 06:57:48;;;;;;;5.00;2.70;;;18.80;99.90;;;;;;5132877;27;20472;-61
2021/09/28 07:00:15;;;;;;;11.03;7.00;;;18.80;99.90;;;;;;5131982;27;20463;-61
2021/09/28 07:02:42;;;;;;;7.50;5.17;;;18.80;99.90;;;;;;5131942;27;20478;-61
2021/09/28 07:05:13;;;;;;;14.43;4.90;;;18.80;99.90;;;;;;5132621;27;20475;-62
2021/09/28 07:07:40;;;;;;;10.87;6.00;;;18.80;99.90;;;;;;5132801;27;20495;-61
2021/09/28 07:10:09;;;;;;;7.50;6.50;;;18.80;99.90;;;;;;5132192;27;20455;-61
2021/09/28 07:12:37;;;;;;;18.07;13.53;;;18.80;99.90;;;;;;5132745;27;20468;-61
2021/09/28 07:15:05;;;;;;;11.50;8.60;;;18.90;99.90;;;;;;5133245;27;20460;-61
2021/09/28 07:17:32;;;;;;;7.70;4.50;;;18.90;99.90;;;;;;5133367;27;20485;-61
2021/09/28 07:19:59;;;;;;;7.13;3.10;;;18.90;99.90;;;;;;5132907;27;20460;-61
2021/09/28 07:22:27;;;;;;;8.40;6.67;;;18.90;99.90;;;;;;5133387;27;20463;-61
2021/09/28 07:24:55;;;;;;;13.07;8.20;;;18.90;99.90;;;;;;5132818;27;20471;-61
2021/09/28 07:27:22;;;;;;;13.80;10.20;;;18.90;99.90;;;;;;5133419;27;20953;-61
2021/09/28 07:29:49;;;;;;;12.87;9.43;;;18.80;99.90;;;;;;5133007;27;20791;-61
2021/09/28 07:32:16;;;;;;;11.00;7.43;;;18.80;99.90;;;;;;5133033;27;20485;-61
2021/09/28 07:34:44;;;;;;;5.53;3.93;;;18.90;99.90;;;;;;5133390;27;20463;-61
2021/09/28 07:37:11;;;;;;;16.53;10.73;;;18.80;99.90;;;;;;5133189;27;20470;-61
2021/09/28 07:39:39;;;;;;;14.60;11.93;;;18.80;99.90;;;;;;5133228;27;20459;-61
2021/09/28 07:42:07;;;;;;;10.57;8.00;;;18.80;99.90;;;;;;5132935;27;20464;-62
2021/09/28 07:44:34;;;;;;;16.63;9.23;;;18.80;99.90;;;;;;5133281;27;20459;-61
2021/09/28 07:47:01;;;;;;;10.87;8.60;;;18.80;99.90;;;;;;5132939;27;20459;-61
2021/09/28 07:49:28;;;;;;;11.40;9.43;;;18.80;99.90;;;;;;5136735;27;20474;-61
2021/09/28 07:51:55;;;;;;;9.13;6.50;;;18.80;99.90;;;;;;5136803;27;20944;-61
2021/09/28 07:54:22;;;;;;;8.47;5.00;;;18.80;99.90;;;;;;5137238;27;20457;-61
2021/09/28 07:56:50;;;;;;;13.17;8.07;;;18.80;99.90;;;;;;5136489;27;20808;-61
2021/09/28 07:59:17;;;;;;;12.87;7.47;;;18.80;99.90;;;;;;5136902;27;20469;-61
2021/09/28 08:01:44;;;;;;;8.13;5.50;;;18.80;99.90;;;;;;5137011;27;20470;-61
2021/09/28 08:04:10;;;;;;;13.70;8.80;;;18.80;99.90;;;;;;5136155;27;20780;-61
2021/09/28 08:06:37;;;;;;;10.90;7.30;;;18.80;99.90;;;;;;5137027;27;20465;-61
2021/09/28 08:09:04;;;;;;;12.30;8.40;;;18.80;99.90;;;;;;5136562;27;20476;-62
2021/09/28 08:11:31;;;;;;;7.10;5.20;;;18.70;99.90;;;;;;5136784;27;20463;-61
2021/09/28 08:13:59;;;;;;;8.50;3.67;;;18.70;99.90;;;;;;5136345;27;20455;-61
2021/09/28 08:16:27;;;;;;;9.20;3.40;;;18.70;99.90;;;;;;5136754;27;20470;-62
2021/09/28 08:18:54;;;;;;;9.20;4.37;;;18.60;99.90;;;;;;5136329;27;20542;-61
2021/09/28 08:21:21;;;;;;;7.73;3.70;;;18.60;99.90;;;;;;5136614;27;20466;-61
2021/09/28 08:23:48;;;;;;;5.40;4.60;;;18.60;99.90;;;;;;5136895;27;20551;-61
2021/09/28 08:29:10;;;;;;;13.20;8.87;;;18.60;99.90;;;;;;5136105;27;20567;-61
2021/09/28 08:31:38;;;;;;;8.90;5.37;;;18.50;99.90;;;;;;5136432;27;20494;-61
2021/09/28 08:34:05;;;;;;;7.70;4.83;;;18.50;99.90;;;;;;5135693;27;20456;-61
2021/09/28 08:36:33;;;;;;;5.50;3.50;;;18.50;99.90;;;;;;5136579;27;20459;-61
2021/09/28 08:39:00;;;;;;;7.27;3.80;;;18.50;99.90;;;;;;5135707;27;20473;-61
2021/09/28 08:41:27;;;;;;;8.10;4.03;;;18.50;99.90;;;;;;5136463;27;20953;-62
2021/09/28 08:43:55;;;;;;;11.70;4.50;;;18.50;99.90;;;;;;5135753;27;20552;-61
2021/09/28 08:46:25;;;;;;;4.70;4.10;;;18.50;99.90;;;;;;5136376;27;20456;-61
2021/09/28 08:48:52;;;;;;;5.17;4.60;;;18.50;99.90;;;;;;5136308;27;20891;-61
2021/09/28 08:51:19;;;;;;;14.90;9.30;;;18.50;99.90;;;;;;5135781;27;20522;-61
2021/09/28 08:53:48;;;;;;;8.00;3.87;;;18.50;99.90;;;;;;5136013;27;20779;-61
2021/09/28 08:56:16;;;;;;;14.57;10.90;;;18.50;99.90;;;;;;5135484;27;20460;-61
2021/09/28 08:58:54;;;;;;;12.00;7.67;;;18.40;99.90;;;;;;5135248;27;20886;-61
2021/09/28 09:01:23;;;;;;;8.03;4.03;;;18.50;99.90;;;;;;5135876;27;20452;-61
2021/09/28 09:03:50;;;;;;;7.53;3.93;;;18.50;99.90;;;;;;5135649;27;20482;-61
2021/09/28 09:06:17;;;;;;;4.30;3.90;;;18.50;99.90;;;;;;5135191;27;20455;-62
2021/09/28 09:08:48;;;;;;;10.90;8.60;;;18.50;99.90;;;;;;5135574;27;20528;-62
2021/09/28 09:11:17;;;;;;;10.90;7.00;;;18.50;99.90;;;;;;5135487;27;20464;-61
2021/09/28 09:13:46;;;;;;;9.77;8.20;;;18.50;99.90;;;;;;5135702;27;20463;-61
2021/09/28 09:16:15;;;;;;;14.33;7.87;;;18.50;99.90;;;;;;5134941;27;20464;-61
2021/09/28 09:18:46;;;;;;;6.10;5.10;;;18.50;99.90;;;;;;5135672;27;20464;-61
2021/09/28 09:21:15;;;;;;;7.27;5.73;;;18.50;99.90;;;;;;5135242;27;20463;-61
2021/09/28 09:23:43;;;;;;;9.90;6.20;;;18.50;99.90;;;;;;5135350;27;20467;-61
2021/09/28 09:26:14;;;;;;;6.20;3.80;;;18.50;99.90;;;;;;5134731;27;20460;-61
2021/09/28 09:28:45;;;;;;;10.17;5.30;;;18.50;99.90;;;;;;5135506;27;20474;-61
2021/09/28 09:31:21;;;;;;;5.63;4.20;;;18.50;99.90;;;;;;5135042;27;20459;-62
2021/09/28 09:33:50;;;;;;;9.93;5.33;;;18.50;99.90;;;;;;5135006;27;20467;-61
2021/09/28 09:36:19;;;;;;;6.37;4.17;;;18.50;99.90;;;;;;5134769;27;20546;-61
2021/09/28 09:38:48;;;;;;;5.17;3.43;;;18.50;99.90;;;;;;5135131;27;20473;-61
2021/09/28 09:41:15;;;;;;;4.73;3.47;;;18.50;99.90;;;;;;5134903;27;20550;-61
2021/09/28 09:43:43;;;;;;;4.27;3.80;;;18.50;99.90;;;;;;5135035;27;20456;-61
2021/09/28 09:46:13;;;;;;;5.23;4.83;;;18.50;99.90;;;;;;5134645;27;20464;-61
2021/09/28 09:48:41;;;;;;;6.77;4.40;;;18.50;99.90;;;;;;5134977;27;20641;-61
2021/09/28 09:51:12;;;;;;;4.53;3.30;;;18.50;99.90;;;;;;5134394;27;20463;-62
2021/09/28 09:53:52;;;;;;;6.13;3.17;;;18.50;99.90;;;;;;5134748;27;20494;-61
2021/09/28 09:56:20;;;;;;;7.10;3.87;;;18.50;99.90;;;;;;5134281;27;20478;-61
2021/09/28 09:58:47;;;;;;;3.90;3.50;;;18.50;99.90;;;;;;5134643;27;20468;-61
2021/09/28 10:01:15;;;;;;;5.10;3.57;;;18.50;99.90;;;;;;5134460;27;20915;-61
2021/09/28 10:03:42;;;;;;;7.33;5.40;;;18.50;99.90;;;;;;5134608;27;20471;-61
2021/09/28 10:06:10;;;;;;;7.97;6.80;;;18.50;99.90;;;;;;5134166;27;20520;-62
2021/09/28 10:08:44;;;;;;;7.83;7.03;;;18.50;99.90;;;;;;5134665;27;20472;-62
2021/09/28 10:11:12;;;;;;;6.60;5.70;;;18.50;99.90;;;;;;5133358;27;20497;-61
2021/09/28 10:13:54;;;;;;;9.17;5.33;;;18.60;99.90;;;;;;5134309;27;20464;-61
2021/09/28 10:16:36;;;;;;;5.63;5.00;;;18.60;99.90;;;;;;5133920;27;20478;-62
2021/09/28 10:19:05;;;;;;;8.50;6.80;;;18.70;99.90;;;;;;5133914;27;20474;-61
2021/09/28 10:21:42;;;;;;;8.40;6.07;;;18.70;99.90;;;;;;5134346;27;20465;-62
2021/09/28 10:24:32;;;;;;;8.40;4.97;;;18.70;99.90;;;;;;5133844;27;20945;-62
2021/09/28 10:27:28;;;;;;;7.70;5.53;;;18.80;99.90;;;;;;5134267;27;20462;-62
2021/09/28 10:29:56;;;;;;;7.70;4.43;;;18.80;99.90;;;;;;5134033;27;20470;-61
2021/09/28 10:32:45;;;;;;;7.80;5.00;;;18.90;99.90;;;;;;5134027;27;20471;-62
2021/09/28 10:35:14;;;;;;;5.60;3.70;;;18.90;99.90;;;;;;5131868;27;21183;-62
2021/09/28 10:37:57;;;;;;;6.30;4.23;;;18.90;99.90;;;;;;5134175;27;20459;-61
2021/09/28 10:40:47;;;;;;;7.17;4.30;;;18.90;99.90;;;;;;5134419;27;20467;-61
2021/09/28 10:43:30;;;;;;;6.93;4.50;;;19.00;99.90;;;;;;5133743;27;20459;-61
2021/09/28 10:46:00;;;;;;;4.77;4.27;;;19.00;99.90;;;;;;5134000;27;20455;-61
2021/09/28 10:48:36;;;;;;;5.97;3.63;;;19.00;99.90;;;;;;5133448;27;20460;-61
2021/09/28 10:51:14;;;;;;;5.80;4.90;;;19.10;99.90;;;;;;5133923;27;20471;-61
2021/09/28 10:53:45;;;;;;;7.60;6.30;;;19.10;99.90;;;;;;5133387;27;21145;-61
2021/09/28 10:56:14;;;;;;;7.97;4.37;;;19.10;99.90;;;;;;5133643;27;20456;-62
2021/09/28 10:59:00;;;;;;;5.37;4.60;;;19.10;99.90;;;;;;5133287;27;20945;-61
2021/09/28 11:01:28;;;;;;;7.50;4.50;;;19.10;99.90;;;;;;5133231;27;20539;-62
2021/09/28 11:04:21;;;;;;;5.87;4.53;;;19.10;99.90;;;;;;5133723;27;20467;-61
2021/09/28 11:07:10;;;;;;;6.03;3.90;;;19.20;99.90;;;;;;5112900;27;20456;-62
2021/09/28 11:09:52;;;;;;;5.03;3.47;;;19.20;99.90;;;;;;5112672;27;20547;-62
2021/09/28 11:12:23;;;;;;;10.63;3.00;;;19.20;99.90;;;;;;5112850;27;20958;-62
2021/09/28 11:14:50;;;;;;;6.83;2.70;;;19.20;99.90;;;;;;5112950;27;21654;-61
2021/09/28 11:17:18;;;;;;;7.20;4.80;;;19.20;99.90;;;;;;5113007;27;20474;-61
2021/09/28 11:19:46;;;;;;;8.23;4.33;;;19.20;99.90;;;;;;5112568;27;20487;-62
2021/09/28 11:22:19;;;;;;;5.30;3.90;;;19.30;99.90;;;;;;5114261;27;20460;-61
2021/09/28 11:24:47;;;;;;;5.07;4.17;;;19.30;99.90;;;;;;5116806;27;20467;-62
2021/09/28 11:27:14;;;;;;;6.03;4.77;;;19.30;99.90;;;;;;5117025;27;20482;-62
2021/09/28 11:29:42;;;;;;;11.03;8.43;;;19.30;99.90;;;;;;5116475;27;20476;-62
2021/09/28 11:32:10;;;;;;;10.00;5.30;;;19.40;99.90;;;;;;5123284;27;20487;-62
2021/09/28 11:34:40;;;;;;;8.03;5.07;;;19.30;99.90;;;;;;5136293;27;20455;-62
2021/09/28 11:37:07;;;;;;;6.53;5.80;;;19.40;99.90;;;;;;5126476;27;20463;-61
2021/09/28 11:39:38;;;;;;;8.93;5.47;;;19.40;99.90;;;;;;5136419;27;20477;-61
2021/09/28 11:42:07;;;;;;;8.20;7.23;;;19.40;99.90;;;;;;5137275;27;20460;-61
2021/09/28 11:44:40;;;;;;;10.50;6.57;;;19.40;99.90;;;;;;5136917;27;20474;-61
2021/09/28 11:47:15;;;;;;;10.50;5.17;;;19.40;99.90;;;;;;5136759;27;20487;-61
2021/09/28 11:49:51;;;;;;;9.03;6.77;;;19.40;99.90;;;;;;5136426;27;20451;-62
2021/09/28 11:52:18;;;;;;;10.03;6.03;;;19.50;99.90;;;;;;5137010;27;20471;-62
2021/09/28 11:54:47;;;;;;;6.23;3.63;;;19.50;99.90;;;;;;5136797;27;20805;-61
2021/09/28 11:57:16;;;;;;;7.73;4.47;;;19.50;99.90;;;;;;5121972;27;20460;-62
2021/09/28 11:59:44;;;;;;;10.03;6.70;;;19.60;99.90;;;;;;5134020;27;20827;-61
2021/09/28 12:02:13;;;;;;;9.27;5.50;;;19.60;99.90;;;;;;5132837;27;20973;-61
2021/09/28 12:10:40;;;;;;;10.23;5.37;;;19.70;99.90;;;;;;5136117;27;20467;-60
2021/09/28 12:13:23;;;;;;;6.80;5.80;;;19.70;99.90;;;;;;5136418;27;20461;-60
2021/09/28 12:16:06;;;;;;;10.40;4.43;;;19.70;99.90;;;;;;5136210;27;20931;-62
2021/09/28 12:18:33;;;;;;;8.20;4.63;;;19.70;99.90;;;;;;5135538;27;20540;-62
2021/09/28 12:21:11;;;;;;;8.87;6.13;;;19.80;99.90;;;;;;5129139;27;20955;-62
2021/09/28 12:23:38;;;;;;;10.03;5.27;;;19.80;99.90;;;;;;5120583;27;20943;-62
2021/09/28 12:26:06;;;;;;;5.57;3.77;;;19.80;99.90;;;;;;5128193;27;20753;-62
2021/09/28 12:28:41;;;;;;;4.10;3.20;;;19.90;99.90;;;;;;5134181;27;20482;-62
2021/09/28 12:31:09;;;;;;;4.77;3.70;;;19.90;99.90;;;;;;5122631;27;20456;-62
2021/09/28 12:33:38;;;;;;;6.80;4.77;;;19.90;99.90;;;;;;5133212;27;20797;-62
2021/09/28 12:36:05;;;;;;;4.67;3.60;;;19.90;99.90;;;;;;5129915;27;20476;-62
2021/09/28 12:38:32;;;;;;;3.80;3.47;;;20.00;99.90;;;;;;5132447;27;20468;-62
2021/09/28 12:41:05;;;;;;;6.30;5.70;;;19.90;99.90;;;;;;5136074;27;20463;-62
2021/09/28 12:43:32;;;;;;;6.20;5.30;;;20.00;99.90;;;;;;5135392;27;20467;-61
2021/09/28 12:46:04;;;;;;;6.87;3.80;;;20.00;99.90;;;;;;5136109;27;20463;-62
2021/09/28 12:48:35;;;;;;;6.20;3.87;;;20.00;99.90;;;;;;5136096;27;20467;-62
2021/09/28 12:51:03;;;;;;;4.57;4.17;;;20.00;99.90;;;;;;5135642;27;20472;-62
2021/09/28 12:53:30;;;;;;;11.00;8.73;;;20.00;99.90;;;;;;5135731;27;20464;-62